Flugplatz Idar-Oberstein/Göttschied (EDRG)

Hier findest Du alle Informationen zum Flugplatz Idar-Oberstein/Göttschied (EDRG).

Informationen für Piloten zum Flugplatz Idar-Oberstein/Göttschied

Hier findest Du alle relevanten Informationen, die Du als Pilot benötigst, um Idar-Oberstein/Göttschied anzufliegen.

Flugplatz: Idar-Oberstein/Göttschied ICAO-Code: EDRG
Frequenz Turm: 128.360 Mhz GAFOR Gebiet: 44
Frequenz Ground: 128.360 Mhz Mogas: ja
Platzrunde: N 2600 ft Landegebühr: 5 €
Platzhöhe: - Sunrise: 05:20 Uhr UTC
Pisten: 06/24 - 650 m x 50 m, GRAS Sunset: 17:23 Uhr UTC

Mitglieder, die in Idar-Oberstein/Göttschied fliegen

Flugwetter am Flugplatz Idar-Oberstein/Göttschied

Die METAR Information stammen aus EDFH (24.53 km entfernt).

METAR Code:
2020/09/15 16:50
EDFH 151650Z 22004KT CAVOK 29/11 Q1020

Flugschulen am Flugplatz Idar-Oberstein/Göttschied

Am Flugplatz Idar-Oberstein/Göttschied gibt es leider keine Flugschule.

Benachbarte Flugplätze und Flugschulen

Es gibt 20 weitere Flugplätze in einem Umkreis von 50 km um den Flugplatz Idar-Oberstein/Göttschied.

Jetzt anmelden

Passwort vergessen

Umfrage Archiv

Wären Rettungsgeräte keine Pflicht mehr, würdet Ihr Euer UL trotzdem mit einem ausstatten?

Ja
85.6 %
Nein
14.4 %
Stimmen: 319 | Diskussion
Anzeige: Roland Aircraft
Statistik Alle Mitglieder

Aktuell sind 60 Besucher online, davon 1 Mitglied und 59 Gäste.


Mitglieder online:
Heli 

Anzeige: VFR Sprechfunk Simulator


Anzeige: Pocket FMS